Mirage, Colorado
Current Conditions -  °F | °C
As of 6:16 PM on Monday 26 Jan 2015 (Local Time) from K04V Reporting Station
Clear Clear  
Wind Chill: -3°   Ceiling: Unl
Heat Index: -3°   Visibility: 10mi
Dew Point: -5°   Wind: 3mph
Humidity: 86%   Direction: 350°N
Pressure: 30.42"   Gusts: NA
Location:  37.9777°N, 105.779°W
Report Text: K04V 270116Z AUTO 35003KT 10SM CLR M03/M05 A3042 RMK AO2
Loading
Personal Weather Stations






























Interactive Weather Map New forecast layout! Learn more

10-Day Weather Forecast

Advertisements
Track Severe Weather on mobile